Time,TemperatureF,DewpointF,PressureIn,WindDirection,WindDirectionDegrees,WindSpeedMPH,WindSpeedGustMPH,Humidity,HourlyPrecipIn,Conditions,Clouds,dailyrainin,SoftwareType,DateUTC
2013-04-27 00:03:00,47.0,41.0,30.33,SSE,161,0.0,0.0,79,0.00,,,0.00,,2013-04-27 04:03:00,
2013-04-27 00:13:00,47.0,41.0,30.33,SSE,161,0.0,0.0,79,0.00,,,0.00,,2013-04-27 04:13:00,
2013-04-27 00:23:00,46.0,41.0,30.33,SSE,161,0.0,0.0,82,0.00,,,0.00,,2013-04-27 04:23:00,
2013-04-27 00:33:00,45.0,41.0,30.33,SSE,161,0.0,0.0,87,0.00,,,0.00,,2013-04-27 04:33:00,
2013-04-27 00:43:00,45.0,41.0,30.33,SSE,161,0.0,0.0,87,0.00,,,0.00,,2013-04-27 04:43:00,
2013-04-27 00:53:00,44.0,41.0,30.34,SSE,161,0.0,0.0,89,0.00,,,0.00,,2013-04-27 04:53:00,
2013-04-27 01:02:00,43.0,41.0,30.34,SSE,161,0.0,0.0,92,0.00,,,0.00,,2013-04-27 05:02:00,
2013-04-27 01:12:00,43.0,41.0,30.34,SSE,161,0.0,0.0,92,0.00,,,0.00,,2013-04-27 05:12:00,
2013-04-27 01:22:00,43.0,41.0,30.34,SSE,161,0.0,0.0,91,0.00,,,0.00,,2013-04-27 05:22:00,
2013-04-27 01:32:00,43.0,41.0,30.35,SSE,161,0.0,0.0,92,0.00,,,0.00,,2013-04-27 05:32:00,
2013-04-27 01:42:00,43.0,41.0,30.35,SSE,161,0.0,0.0,92,0.00,,,0.00,,2013-04-27 05:42:00,
2013-04-27 01:52:00,43.0,41.0,30.34,SSE,161,0.0,0.0,91,0.00,,,0.00,,2013-04-27 05:52:00,
2013-04-27 02:02:00,42.0,40.0,30.34,SSE,161,0.0,0.0,92,0.00,,,0.00,,2013-04-27 06:02:00,
2013-04-27 02:12:00,42.0,40.0,30.34,SSE,161,0.0,0.0,92,0.00,,,0.00,,2013-04-27 06:12:00,
2013-04-27 02:22:00,41.0,39.0,30.34,SSE,161,0.0,0.0,93,0.00,,,0.00,,2013-04-27 06:22:00,
2013-04-27 02:32:00,41.0,39.0,30.33,SSE,161,0.0,0.0,92,0.00,,,0.00,,2013-04-27 06:32:00,
2013-04-27 02:42:00,41.0,39.0,30.33,SSE,161,0.0,0.0,92,0.00,,,0.00,,2013-04-27 06:42:00,
2013-04-27 02:52:00,41.0,39.0,30.33,SSE,161,0.0,0.0,93,0.00,,,0.00,,2013-04-27 06:52:00,
2013-04-27 03:01:00,42.0,40.0,30.33,SSE,161,0.0,0.0,92,0.00,,,0.00,,2013-04-27 07:01:00,
2013-04-27 03:11:00,42.0,40.0,30.33,SSE,161,0.0,0.0,92,0.00,,,0.00,,2013-04-27 07:11:00,
2013-04-27 03:21:00,42.0,40.0,30.32,SSE,161,0.0,0.0,92,0.00,,,0.00,,2013-04-27 07:21:00,
2013-04-27 03:32:00,41.0,39.0,30.32,SSE,161,0.0,0.0,93,0.00,,,0.00,,2013-04-27 07:32:00,
2013-04-27 03:42:00,41.0,39.0,30.32,SSE,161,0.0,0.0,93,0.00,,,0.00,,2013-04-27 07:42:00,
2013-04-27 03:52:00,41.0,40.0,30.32,SSE,161,0.0,0.0,95,0.00,,,0.00,,2013-04-27 07:52:00,
2013-04-27 04:02:00,40.0,38.0,30.31,SSE,161,0.0,0.0,94,0.00,,,0.00,,2013-04-27 08:02:00,
2013-04-27 04:12:00,40.0,38.0,30.31,SSE,161,0.0,0.0,94,0.00,,,0.00,,2013-04-27 08:12:00,
2013-04-27 04:21:00,40.0,39.0,30.31,SSE,161,0.0,0.0,95,0.00,,,0.00,,2013-04-27 08:21:00,
2013-04-27 04:33:00,40.0,39.0,30.31,SSE,161,0.0,0.0,96,0.00,,,0.00,,2013-04-27 08:33:00,
2013-04-27 04:42:00,40.0,39.0,30.31,SSE,161,0.0,0.0,96,0.00,,,0.00,,2013-04-27 08:42:00,
2013-04-27 04:52:00,39.0,38.0,30.30,SSE,161,0.0,0.0,96,0.00,,,0.00,,2013-04-27 08:52:00,
2013-04-27 05:01:00,39.0,38.0,30.31,SSE,161,0.0,0.0,96,0.00,,,0.00,,2013-04-27 09:01:00,
2013-04-27 05:11:00,39.0,38.0,30.31,SSE,161,0.0,0.0,96,0.00,,,0.00,,2013-04-27 09:11:00,
2013-04-27 05:22:00,39.0,38.0,30.30,SSE,161,0.0,0.0,97,0.00,,,0.00,,2013-04-27 09:22:00,
2013-04-27 05:33:00,38.0,37.0,30.30,SSE,161,0.0,0.0,96,0.00,,,0.00,,2013-04-27 09:33:00,
2013-04-27 05:43:00,38.0,37.0,30.30,SSE,161,0.0,0.0,96,0.00,,,0.00,,2013-04-27 09:43:00,
2013-04-27 05:53:00,38.0,37.0,30.30,SSE,161,0.0,0.0,96,0.00,,,0.00,,2013-04-27 09:53:00,
2013-04-27 06:03:00,38.0,37.0,30.30,SSE,161,0.0,0.0,97,0.00,,,0.00,,2013-04-27 10:03:00,
2013-04-27 06:12:00,38.0,37.0,30.30,SSE,161,0.0,0.0,97,0.00,,,0.00,,2013-04-27 10:12:00,
2013-04-27 06:22:00,38.0,37.0,30.30,SSE,161,0.0,0.0,97,0.00,,,0.00,,2013-04-27 10:22:00,
2013-04-27 06:33:00,38.0,37.0,30.30,SSE,161,0.0,0.0,97,0.00,,,0.00,,2013-04-27 10:33:00,
2013-04-27 06:42:00,38.0,37.0,30.30,SSE,161,0.0,0.0,97,0.00,,,0.00,,2013-04-27 10:42:00,
2013-04-27 06:52:00,38.0,37.0,30.31,SSE,161,0.0,0.0,97,0.00,,,0.00,,2013-04-27 10:52:00,
2013-04-27 07:02:00,38.0,37.0,30.30,SSE,161,0.0,0.0,97,0.00,,,0.00,,2013-04-27 11:02:00,
2013-04-27 07:12:00,38.0,37.0,30.30,SSE,161,0.0,0.0,97,0.00,,,0.00,,2013-04-27 11:12:00,
2013-04-27 07:22:00,38.0,37.0,30.31,SSE,161,0.0,0.0,97,0.00,,,0.00,,2013-04-27 11:22:00,
2013-04-27 07:32:00,38.0,37.0,30.31,SSE,161,0.0,0.0,98,0.00,,,0.00,,2013-04-27 11:32:00,
2013-04-27 07:42:00,38.0,37.0,30.31,SSE,161,0.0,0.0,98,0.00,,,0.00,,2013-04-27 11:42:00,
2013-04-27 07:52:00,38.0,37.0,30.31,SSE,161,0.0,0.0,98,0.00,,,0.00,,2013-04-27 11:52:00,
2013-04-27 08:01:00,39.0,38.0,30.30,SSE,161,0.0,0.0,98,0.00,,,0.00,,2013-04-27 12:01:00,
2013-04-27 08:11:00,39.0,38.0,30.30,SSE,161,0.0,0.0,98,0.00,,,0.00,,2013-04-27 12:11:00,
2013-04-27 08:22:00,41.0,40.0,30.30,SSE,161,0.0,0.0,98,0.00,,,0.00,,2013-04-27 12:22:00,
2013-04-27 08:32:00,42.0,41.0,30.31,SE,143,0.0,0.0,98,0.00,,,0.00,,2013-04-27 12:32:00,
2013-04-27 08:42:00,42.0,41.0,30.31,SE,143,0.0,0.0,98,0.00,,,0.00,,2013-04-27 12:42:00,
2013-04-27 08:52:00,44.0,43.0,30.31,South,182,0.0,3.0,98,0.00,,,0.00,,2013-04-27 12:52:00,
2013-04-27 09:02:00,48.0,40.0,30.31,SSE,166,2.0,4.0,73,0.00,,,0.00,,2013-04-27 13:02:00,
2013-04-27 09:12:00,48.0,40.0,30.31,SSE,166,2.0,4.0,73,0.00,,,0.00,,2013-04-27 13:12:00,
2013-04-27 09:22:00,51.0,40.0,30.30,SW,228,1.0,3.0,66,0.00,,,0.00,,2013-04-27 13:22:00,
2013-04-27 09:32:00,53.0,39.0,30.30,SSE,147,1.0,4.0,59,0.00,,,0.00,,2013-04-27 13:32:00,
2013-04-27 09:42:00,53.0,39.0,30.30,SSE,147,1.0,4.0,59,0.00,,,0.00,,2013-04-27 13:42:00,
2013-04-27 09:52:00,55.0,41.0,30.30,SSE,166,1.0,4.0,59,0.00,,,0.00,,2013-04-27 13:52:00,
2013-04-27 10:02:00,55.0,39.0,30.29,SE,141,2.0,5.0,54,0.00,,,0.00,,2013-04-27 14:02:00,
2013-04-27 10:11:00,55.0,39.0,30.29,SE,141,2.0,5.0,54,0.00,,,0.00,,2013-04-27 14:11:00,
2013-04-27 10:22:00,57.0,40.0,30.29,SE,141,0.0,2.0,53,0.00,,,0.00,,2013-04-27 14:22:00,
2013-04-27 10:32:00,58.0,40.0,30.29,SE,146,0.0,3.0,52,0.00,,,0.00,,2013-04-27 14:32:00,
2013-04-27 10:42:00,58.0,40.0,30.29,SE,146,0.0,3.0,52,0.00,,,0.00,,2013-04-27 14:42:00,
2013-04-27 10:52:00,59.0,40.0,30.28,SSE,154,0.0,3.0,50,0.00,,,0.00,,2013-04-27 14:52:00,
2013-04-27 11:01:00,60.0,40.0,30.27,SE,131,1.0,5.0,47,0.00,,,0.00,,2013-04-27 15:01:00,
2013-04-27 11:12:00,60.0,40.0,30.27,SE,131,1.0,5.0,47,0.00,,,0.00,,2013-04-27 15:12:00,
2013-04-27 11:22:00,61.0,40.0,30.27,SSE,167,1.0,7.0,45,0.00,,,0.00,,2013-04-27 15:22:00,
2013-04-27 11:33:00,61.0,36.0,30.27,SSW,195,5.0,8.0,40,0.00,,,0.00,,2013-04-27 15:33:00,
2013-04-27 11:43:00,61.0,36.0,30.27,SSW,195,5.0,8.0,40,0.00,,,0.00,,2013-04-27 15:43:00,
2013-04-27 11:53:00,62.0,41.0,30.27,WSW,251,1.0,4.0,46,0.00,,,0.00,,2013-04-27 15:53:00,
2013-04-27 12:03:00,63.0,38.0,30.27,SE,133,1.0,4.0,40,0.00,,,0.00,,2013-04-27 16:03:00,
2013-04-27 12:13:00,63.0,38.0,30.27,SE,133,1.0,4.0,40,0.00,,,0.00,,2013-04-27 16:13:00,
2013-04-27 12:23:00,65.0,40.0,30.26,SW,219,1.0,9.0,40,0.00,,,0.00,,2013-04-27 16:23:00,
2013-04-27 12:33:00,65.0,39.0,30.25,SE,129,0.0,7.0,39,0.00,,,0.00,,2013-04-27 16:33:00,
2013-04-27 12:42:00,65.0,39.0,30.25,SE,129,0.0,7.0,39,0.00,,,0.00,,2013-04-27 16:42:00,
2013-04-27 12:53:00,66.0,39.0,30.25,SSW,202,2.0,4.0,37,0.00,,,0.00,,2013-04-27 16:53:00,
2013-04-27 13:02:00,67.0,41.0,30.25,South,187,2.0,6.0,38,0.00,,,0.00,,2013-04-27 17:02:00,
2013-04-27 13:12:00,67.0,41.0,30.25,South,187,2.0,6.0,38,0.00,,,0.00,,2013-04-27 17:12:00,
2013-04-27 13:22:00,67.0,38.0,30.24,ESE,106,1.0,11.0,34,0.00,,,0.00,,2013-04-27 17:22:00,
2013-04-27 13:32:00,68.0,42.0,30.24,NW,324,1.0,10.0,39,0.00,,,0.00,,2013-04-27 17:32:00,
2013-04-27 13:42:00,68.0,42.0,30.24,NW,324,1.0,10.0,39,0.00,,,0.00,,2013-04-27 17:42:00,
2013-04-27 13:53:00,69.0,40.0,30.24,SSE,153,2.0,8.0,35,0.00,,,0.00,,2013-04-27 17:53:00,
2013-04-27 14:02:00,69.0,42.0,30.23,SSE,167,2.0,4.0,37,0.00,,,0.00,,2013-04-27 18:02:00,
2013-04-27 14:12:00,69.0,42.0,30.23,SSE,167,2.0,4.0,37,0.00,,,0.00,,2013-04-27 18:12:00,
2013-04-27 14:22:00,68.0,40.0,30.22,SE,139,3.0,11.0,36,0.00,,,0.00,,2013-04-27 18:22:00,
2013-04-27 14:32:00,68.0,39.0,30.22,SSE,163,3.0,10.0,35,0.00,,,0.00,,2013-04-27 18:32:00,
2013-04-27 14:42:00,68.0,39.0,30.22,SSE,163,3.0,10.0,35,0.00,,,0.00,,2013-04-27 18:42:00,
2013-04-27 14:52:00,69.0,39.0,30.21,East,84,2.0,5.0,33,0.00,,,0.00,,2013-04-27 18:52:00,
2013-04-27 15:02:00,69.0,39.0,30.21,South,185,4.0,11.0,33,0.00,,,0.00,,2013-04-27 19:02:00,
2013-04-27 15:11:00,69.0,39.0,30.21,South,185,4.0,11.0,33,0.00,,,0.00,,2013-04-27 19:11:00,
2013-04-27 15:22:00,71.0,41.0,30.20,WSW,238,0.0,2.0,34,0.00,,,0.00,,2013-04-27 19:22:00,
2013-04-27 15:32:00,71.0,43.0,30.19,North,353,2.0,7.0,36,0.00,,,0.00,,2013-04-27 19:32:00,
2013-04-27 15:42:00,71.0,43.0,30.19,North,353,2.0,7.0,36,0.00,,,0.00,,2013-04-27 19:42:00,
2013-04-27 15:53:00,70.0,42.0,30.18,South,173,3.0,8.0,36,0.00,,,0.00,,2013-04-27 19:53:00,
2013-04-27 16:02:00,70.0,41.0,30.17,WNW,297,2.0,9.0,35,0.00,,,0.00,,2013-04-27 20:02:00,
2013-04-27 16:11:00,70.0,41.0,30.17,WNW,297,2.0,9.0,35,0.00,,,0.00,,2013-04-27 20:11:00,
2013-04-27 16:22:00,71.0,42.0,30.16,North,10,3.0,7.0,35,0.00,,,0.00,,2013-04-27 20:22:00,
2013-04-27 16:32:00,71.0,43.0,30.15,North,354,1.0,8.0,36,0.00,,,0.00,,2013-04-27 20:32:00,
2013-04-27 16:42:00,71.0,43.0,30.15,North,354,1.0,8.0,36,0.00,,,0.00,,2013-04-27 20:42:00,
2013-04-27 16:52:00,71.0,40.0,30.15,South,181,3.0,8.0,33,0.00,,,0.00,,2013-04-27 20:52:00,
2013-04-27 17:02:00,72.0,44.0,30.14,SSE,153,3.0,5.0,37,0.00,,,0.00,,2013-04-27 21:02:00,
2013-04-27 17:12:00,72.0,44.0,30.14,SSE,153,3.0,5.0,37,0.00,,,0.00,,2013-04-27 21:12:00,
2013-04-27 17:22:00,72.0,44.0,30.14,East,100,1.0,4.0,36,0.00,,,0.00,,2013-04-27 21:22:00,
2013-04-27 17:33:00,73.0,44.0,30.13,WNW,299,1.0,9.0,35,0.00,,,0.00,,2013-04-27 21:33:00,
2013-04-27 17:43:00,73.0,44.0,30.13,WNW,299,1.0,9.0,35,0.00,,,0.00,,2013-04-27 21:43:00,
2013-04-27 17:53:00,73.0,42.0,30.12,SSE,164,6.0,10.0,33,0.00,,,0.00,,2013-04-27 21:53:00,
2013-04-27 18:03:00,71.0,43.0,30.12,SSE,150,1.0,11.0,37,0.00,,,0.00,,2013-04-27 22:03:00,
2013-04-27 18:13:00,71.0,43.0,30.12,SSE,150,1.0,11.0,37,0.00,,,0.00,,2013-04-27 22:13:00,
2013-04-27 18:23:00,71.0,43.0,30.12,SSW,192,0.0,2.0,37,0.00,,,0.00,,2013-04-27 22:23:00,
2013-04-27 18:32:00,69.0,42.0,30.11,SE,142,2.0,11.0,38,0.00,,,0.00,,2013-04-27 22:32:00,
2013-04-27 18:42:00,69.0,42.0,30.11,SE,142,2.0,11.0,38,0.00,,,0.00,,2013-04-27 22:42:00,
2013-04-27 18:53:00,69.0,43.0,30.11,North,356,0.0,7.0,39,0.00,,,0.00,,2013-04-27 22:53:00,
2013-04-27 19:02:00,68.0,44.0,30.11,SSW,205,0.0,3.0,42,0.00,,,0.00,,2013-04-27 23:02:00,
2013-04-27 19:12:00,68.0,44.0,30.11,SSW,205,0.0,3.0,42,0.00,,,0.00,,2013-04-27 23:12:00,
2013-04-27 19:22:00,68.0,43.0,30.10,SSE,153,2.0,6.0,41,0.00,,,0.00,,2013-04-27 23:22:00,
2013-04-27 19:32:00,67.0,44.0,30.10,South,172,1.0,7.0,43,0.00,,,0.00,,2013-04-27 23:32:00,
2013-04-27 19:42:00,67.0,44.0,30.10,South,172,1.0,7.0,43,0.00,,,0.00,,2013-04-27 23:42:00,
2013-04-27 19:52:00,66.0,43.0,30.09,East,99,1.0,6.0,44,0.00,,,0.00,,2013-04-27 23:52:00,
2013-04-27 20:01:00,66.0,44.0,30.09,SSE,151,0.0,8.0,45,0.00,,,0.00,,2013-04-28 00:01:00,
2013-04-27 20:12:00,66.0,44.0,30.09,SSE,151,0.0,8.0,45,0.00,,,0.00,,2013-04-28 00:12:00,
2013-04-27 20:22:00,65.0,44.0,30.09,SSE,158,1.0,3.0,47,0.00,,,0.00,,2013-04-28 00:22:00,
2013-04-27 20:32:00,64.0,44.0,30.09,SSE,158,0.0,0.0,49,0.00,,,0.00,,2013-04-28 00:32:00,
2013-04-27 20:43:00,64.0,44.0,30.09,SSE,158,0.0,0.0,49,0.00,,,0.00,,2013-04-28 00:43:00,
2013-04-27 20:52:00,63.0,45.0,30.09,SSE,158,0.0,0.0,51,0.00,,,0.00,,2013-04-28 00:52:00,
2013-04-27 21:02:00,63.0,44.0,30.08,SSE,148,1.0,4.0,50,0.00,,,0.00,,2013-04-28 01:02:00,
2013-04-27 21:11:00,63.0,44.0,30.08,SSE,148,1.0,4.0,50,0.00,,,0.00,,2013-04-28 01:11:00,
2013-04-27 21:22:00,63.0,46.0,30.08,South,188,4.0,6.0,54,0.00,,,0.00,,2013-04-28 01:22:00,
2013-04-27 21:32:00,62.0,47.0,30.08,South,188,2.0,4.0,58,0.00,,,0.00,,2013-04-28 01:32:00,
2013-04-27 21:42:00,62.0,47.0,30.08,South,188,2.0,4.0,58,0.00,,,0.00,,2013-04-28 01:42:00,
2013-04-27 21:52:00,62.0,48.0,30.08,SSW,193,1.0,3.0,61,0.00,,,0.00,,2013-04-28 01:52:00,
2013-04-27 22:02:00,61.0,48.0,30.08,SSW,199,1.0,4.0,63,0.00,,,0.00,,2013-04-28 02:02:00,
2013-04-27 22:12:00,61.0,48.0,30.08,SSW,199,1.0,4.0,63,0.00,,,0.00,,2013-04-28 02:12:00,
2013-04-27 22:22:00,60.0,48.0,30.08,SW,219,0.0,3.0,65,0.00,,,0.00,,2013-04-28 02:22:00,
2013-04-27 22:32:00,60.0,49.0,30.08,South,187,0.0,2.0,66,0.00,,,0.00,,2013-04-28 02:32:00,
2013-04-27 22:42:00,60.0,49.0,30.08,South,187,0.0,2.0,66,0.00,,,0.00,,2013-04-28 02:42:00,
2013-04-27 22:52:00,60.0,49.0,30.08,SSW,197,0.0,0.0,67,0.00,,,0.00,,2013-04-28 02:52:00,
2013-04-27 23:01:00,59.0,48.0,30.07,SSW,197,0.0,0.0,68,0.00,,,0.00,,2013-04-28 03:01:00,
2013-04-27 23:11:00,59.0,48.0,30.07,SSW,197,0.0,0.0,68,0.00,,,0.00,,2013-04-28 03:11:00,
2013-04-27 23:22:00,59.0,50.0,30.07,SSW,197,0.0,0.0,71,0.00,,,0.00,,2013-04-28 03:22:00,
2013-04-27 23:33:00,58.0,49.0,30.06,SSW,197,0.0,0.0,73,0.00,,,0.00,,2013-04-28 03:33:00,
2013-04-27 23:43:00,58.0,49.0,30.06,SSW,197,0.0,0.0,73,0.00,,,0.00,,2013-04-28 03:43:00,
2013-04-27 23:53:00,58.0,51.0,30.06,SSW,197,0.0,0.0,77,0.00,,,0.00,,2013-04-28 03:53:00,